CheckWX is a tool to help pilots better visualize weather data.  It is not intended as a substitute for an official pre-flight weather briefing.

00:54:01 UTC

CYYT METAR
St. John's International Airport
St. John's, Canada
Current

54 mins ago

CYYT 240000Z 27005KT 15SM -RA FEW008 OVC030 02/02 A2916 RMK SF2SC6 /R10/ PRESFR SLP880
Observed
Mar-24 @ 00:00 UTC
Wind
  • 270° at 5 KTS
Visibility
15 SM
Flight Rules
MVFR
Conditions
Light Rain
Cloud Levels
  • Few at 800' AGL
  • Overcast at 3,000' AGL
Temperature
C / 36°F
Dewpoint
C / 36°F
Humidity
100%
Altimeter
29.16" Hg
Pressure
988 hPa
Previous

2 hours ago

CYYT 232323Z 22007KT 12SM RA OVC013 03/03 A2921 RMK SC8 SLP899
Observed
Mar-23 @ 23:23 UTC
Wind
  • 220° at 7 KTS
Visibility
12 SM
Flight Rules
MVFR
Conditions
Rain
Cloud Levels
  • Overcast at 1,300' AGL
Temperature
C / 37°F
Dewpoint
C / 37°F
Humidity
100%
Altimeter
29.21" Hg
Pressure
989.9 hPa
Previous

2 hours ago

CYYT 232300Z 23009KT 12SM -RA OVC014 04/04 A2924 RMK SC8 SLP906
Observed
Mar-23 @ 23:00 UTC
Wind
  • 230° at 9 KTS
Visibility
12 SM
Flight Rules
MVFR
Conditions
Light Rain
Cloud Levels
  • Overcast at 1,400' AGL
Temperature
C / 39°F
Dewpoint
C / 39°F
Humidity
100%
Altimeter
29.24" Hg
Pressure
990.6 hPa